sensor_id;sensor_type;location;lat;lon;timestamp;temperature;humidity
4584;DHT22;2304;47.606;12.186;2022-09-09T00:00:17;17.20;81.20
4584;DHT22;2304;47.606;12.186;2022-09-09T00:05:26;17.30;81.10
4584;DHT22;2304;47.606;12.186;2022-09-09T00:10:34;17.30;80.00
4584;DHT22;2304;47.606;12.186;2022-09-09T00:15:40;17.20;81.00
4584;DHT22;2304;47.606;12.186;2022-09-09T00:20:49;17.10;81.50
4584;DHT22;2304;47.606;12.186;2022-09-09T00:26:01;17.40;81.90
4584;DHT22;2304;47.606;12.186;2022-09-09T00:31:11;17.30;80.80
4584;DHT22;2304;47.606;12.186;2022-09-09T00:36:16;17.30;80.70
4584;DHT22;2304;47.606;12.186;2022-09-09T00:41:24;17.00;80.30
4584;DHT22;2304;47.606;12.186;2022-09-09T00:51:58;17.10;81.70
4584;DHT22;2304;47.606;12.186;2022-09-09T00:57:12;17.20;81.30
4584;DHT22;2304;47.606;12.186;2022-09-09T01:02:25;17.30;79.60
4584;DHT22;2304;47.606;12.186;2022-09-09T01:07:28;17.20;79.30
4584;DHT22;2304;47.606;12.186;2022-09-09T01:12:38;17.10;79.20
4584;DHT22;2304;47.606;12.186;2022-09-09T01:17:51;17.00;80.80
4584;DHT22;2304;47.606;12.186;2022-09-09T01:23:10;17.10;81.20
4584;DHT22;2304;47.606;12.186;2022-09-09T01:28:17;17.20;80.80
4584;DHT22;2304;47.606;12.186;2022-09-09T01:33:23;17.20;80.10
4584;DHT22;2304;47.606;12.186;2022-09-09T01:38:25;17.20;80.00
4584;DHT22;2304;47.606;12.186;2022-09-09T01:43:29;17.40;80.10
4584;DHT22;2304;47.606;12.186;2022-09-09T01:48:31;17.30;79.60
4584;DHT22;2304;47.606;12.186;2022-09-09T01:53:33;17.20;79.50
4584;DHT22;2304;47.606;12.186;2022-09-09T01:58:47;17.10;80.10
4584;DHT22;2304;47.606;12.186;2022-09-09T02:03:54;17.20;80.60
4584;DHT22;2304;47.606;12.186;2022-09-09T02:08:59;17.20;79.90
4584;DHT22;2304;47.606;12.186;2022-09-09T02:14:08;17.30;80.30
4584;DHT22;2304;47.606;12.186;2022-09-09T02:19:14;17.20;79.40
4584;DHT22;2304;47.606;12.186;2022-09-09T02:24:17;17.10;80.00
4584;DHT22;2304;47.606;12.186;2022-09-09T02:29:24;17.20;80.70
4584;DHT22;2304;47.606;12.186;2022-09-09T02:34:27;17.20;80.80
4584;DHT22;2304;47.606;12.186;2022-09-09T02:39:30;17.20;79.80
4584;DHT22;2304;47.606;12.186;2022-09-09T02:44:34;17.20;80.10
4584;DHT22;2304;47.606;12.186;2022-09-09T02:49:46;17.30;80.60
4584;DHT22;2304;47.606;12.186;2022-09-09T02:54:54;17.20;80.50
4584;DHT22;2304;47.606;12.186;2022-09-09T03:00:01;17.40;80.50
4584;DHT22;2304;47.606;12.186;2022-09-09T03:05:04;17.10;81.50
4584;DHT22;2304;47.606;12.186;2022-09-09T03:10:07;16.90;82.00
4584;DHT22;2304;47.606;12.186;2022-09-09T03:15:12;16.90;82.00
4584;DHT22;2304;47.606;12.186;2022-09-09T03:20:15;16.90;82.90
4584;DHT22;2304;47.606;12.186;2022-09-09T03:25:17;16.70;82.10
4584;DHT22;2304;47.606;12.186;2022-09-09T03:30:20;16.70;83.10
4584;DHT22;2304;47.606;12.186;2022-09-09T03:35:22;16.70;83.20
4584;DHT22;2304;47.606;12.186;2022-09-09T03:40:24;16.70;83.70
4584;DHT22;2304;47.606;12.186;2022-09-09T03:45:27;16.60;83.60
4584;DHT22;2304;47.606;12.186;2022-09-09T03:50:30;16.40;85.40
4584;DHT22;2304;47.606;12.186;2022-09-09T03:55:32;16.40;85.00
4584;DHT22;2304;47.606;12.186;2022-09-09T04:00:36;16.40;85.00
4584;DHT22;2304;47.606;12.186;2022-09-09T04:05:43;16.40;85.40
4584;DHT22;2304;47.606;12.186;2022-09-09T04:10:46;16.30;85.30
4584;DHT22;2304;47.606;12.186;2022-09-09T04:15:52;16.70;86.00
4584;DHT22;2304;47.606;12.186;2022-09-09T04:20:55;16.30;85.40
4584;DHT22;2304;47.606;12.186;2022-09-09T04:25:58;16.40;84.80
4584;DHT22;2304;47.606;12.186;2022-09-09T04:31:06;16.50;85.00
4584;DHT22;2304;47.606;12.186;2022-09-09T04:36:08;16.60;84.70
4584;DHT22;2304;47.606;12.186;2022-09-09T04:41:09;16.70;84.10
4584;DHT22;2304;47.606;12.186;2022-09-09T04:46:13;16.70;83.70
4584;DHT22;2304;47.606;12.186;2022-09-09T04:51:17;16.80;83.80
4584;DHT22;2304;47.606;12.186;2022-09-09T04:56:19;16.80;83.80
4584;DHT22;2304;47.606;12.186;2022-09-09T05:01:23;17.10;83.70
4584;DHT22;2304;47.606;12.186;2022-09-09T05:06:26;16.90;83.00
4584;DHT22;2304;47.606;12.186;2022-09-09T05:11:29;16.90;83.30
4584;DHT22;2304;47.606;12.186;2022-09-09T05:16:32;16.70;83.30
4584;DHT22;2304;47.606;12.186;2022-09-09T05:21:34;16.80;84.30
4584;DHT22;2304;47.606;12.186;2022-09-09T05:26:36;16.60;85.30
4584;DHT22;2304;47.606;12.186;2022-09-09T05:31:39;16.60;85.00
4584;DHT22;2304;47.606;12.186;2022-09-09T05:36:41;16.50;84.90
4584;DHT22;2304;47.606;12.186;2022-09-09T05:41:43;16.40;85.40
4584;DHT22;2304;47.606;12.186;2022-09-09T05:46:46;16.30;85.20
4584;DHT22;2304;47.606;12.186;2022-09-09T05:51:48;16.50;85.40
4584;DHT22;2304;47.606;12.186;2022-09-09T05:56:51;16.40;86.00
4584;DHT22;2304;47.606;12.186;2022-09-09T06:01:55;16.30;85.70
4584;DHT22;2304;47.606;12.186;2022-09-09T06:06:57;16.40;85.40
4584;DHT22;2304;47.606;12.186;2022-09-09T06:11:59;16.40;86.10
4584;DHT22;2304;47.606;12.186;2022-09-09T06:17:02;16.40;85.90
4584;DHT22;2304;47.606;12.186;2022-09-09T06:22:04;16.30;86.00
4584;DHT22;2304;47.606;12.186;2022-09-09T06:27:06;16.30;86.50
4584;DHT22;2304;47.606;12.186;2022-09-09T06:32:09;16.20;86.90
4584;DHT22;2304;47.606;12.186;2022-09-09T06:37:11;16.10;87.80
4584;DHT22;2304;47.606;12.186;2022-09-09T06:42:13;16.10;89.60
4584;DHT22;2304;47.606;12.186;2022-09-09T06:47:17;16.20;90.60
4584;DHT22;2304;47.606;12.186;2022-09-09T06:52:19;16.00;90.60
4584;DHT22;2304;47.606;12.186;2022-09-09T06:57:21;16.00;90.60
4584;DHT22;2304;47.606;12.186;2022-09-09T07:02:24;16.00;90.00
4584;DHT22;2304;47.606;12.186;2022-09-09T07:07:26;16.10;90.60
4584;DHT22;2304;47.606;12.186;2022-09-09T07:12:28;16.00;90.90
4584;DHT22;2304;47.606;12.186;2022-09-09T07:17:31;16.00;91.00
4584;DHT22;2304;47.606;12.186;2022-09-09T07:22:32;16.00;91.20
4584;DHT22;2304;47.606;12.186;2022-09-09T07:27:34;16.40;91.60
4584;DHT22;2304;47.606;12.186;2022-09-09T07:32:37;16.10;91.70
4584;DHT22;2304;47.606;12.186;2022-09-09T07:37:40;16.10;92.40
4584;DHT22;2304;47.606;12.186;2022-09-09T07:42:42;16.20;92.30
4584;DHT22;2304;47.606;12.186;2022-09-09T07:47:45;16.20;92.00
4584;DHT22;2304;47.606;12.186;2022-09-09T07:52:48;16.20;92.10
4584;DHT22;2304;47.606;12.186;2022-09-09T07:57:50;16.30;92.20
4584;DHT22;2304;47.606;12.186;2022-09-09T08:02:53;16.30;92.20
4584;DHT22;2304;47.606;12.186;2022-09-09T08:07:55;16.20;91.80
4584;DHT22;2304;47.606;12.186;2022-09-09T08:12:57;16.20;92.60
4584;DHT22;2304;47.606;12.186;2022-09-09T08:18:00;16.20;92.90
4584;DHT22;2304;47.606;12.186;2022-09-09T08:23:03;16.30;93.00
4584;DHT22;2304;47.606;12.186;2022-09-09T08:28:05;16.60;92.50
4584;DHT22;2304;47.606;12.186;2022-09-09T08:33:09;16.40;91.40
4584;DHT22;2304;47.606;12.186;2022-09-09T08:38:10;16.60;91.10
4584;DHT22;2304;47.606;12.186;2022-09-09T08:43:13;16.50;90.90
4584;DHT22;2304;47.606;12.186;2022-09-09T08:48:28;16.50;91.00
4584;DHT22;2304;47.606;12.186;2022-09-09T08:53:39;16.60;89.90
4584;DHT22;2304;47.606;12.186;2022-09-09T08:58:46;16.60;89.90
4584;DHT22;2304;47.606;12.186;2022-09-09T09:03:55;16.80;90.70
4584;DHT22;2304;47.606;12.186;2022-09-09T09:09:02;16.90;89.40
4584;DHT22;2304;47.606;12.186;2022-09-09T09:14:10;17.00;88.90
4584;DHT22;2304;47.606;12.186;2022-09-09T09:19:15;17.00;89.30
4584;DHT22;2304;47.606;12.186;2022-09-09T09:24:20;17.10;89.60
4584;DHT22;2304;47.606;12.186;2022-09-09T09:29:25;17.10;86.90
4584;DHT22;2304;47.606;12.186;2022-09-09T09:34:28;17.10;87.30
4584;DHT22;2304;47.606;12.186;2022-09-09T09:39:32;17.10;87.00
4584;DHT22;2304;47.606;12.186;2022-09-09T09:44:36;17.10;87.10
4584;DHT22;2304;47.606;12.186;2022-09-09T09:49:51;17.20;86.90
4584;DHT22;2304;47.606;12.186;2022-09-09T09:54:54;17.30;87.60
4584;DHT22;2304;47.606;12.186;2022-09-09T10:00:02;17.30;87.90
4584;DHT22;2304;47.606;12.186;2022-09-09T10:05:14;17.30;87.60
4584;DHT22;2304;47.606;12.186;2022-09-09T10:10:22;17.30;87.60
4584;DHT22;2304;47.606;12.186;2022-09-09T10:15:32;17.40;87.70
4584;DHT22;2304;47.606;12.186;2022-09-09T10:20:44;17.50;87.40
4584;DHT22;2304;47.606;12.186;2022-09-09T10:26:07;17.80;86.00
4584;DHT22;2304;47.606;12.186;2022-09-09T10:31:19;17.60;85.30
4584;DHT22;2304;47.606;12.186;2022-09-09T10:36:26;17.70;85.10
4584;DHT22;2304;47.606;12.186;2022-09-09T10:41:42;17.50;85.60
4584;DHT22;2304;47.606;12.186;2022-09-09T10:46:55;17.70;85.90
4584;DHT22;2304;47.606;12.186;2022-09-09T10:52:04;17.60;86.00
4584;DHT22;2304;47.606;12.186;2022-09-09T10:57:11;17.40;85.80
4584;DHT22;2304;47.606;12.186;2022-09-09T11:02:19;17.40;86.40
4584;DHT22;2304;47.606;12.186;2022-09-09T11:07:29;17.40;86.60
4584;DHT22;2304;47.606;12.186;2022-09-09T11:12:37;17.40;85.90
4584;DHT22;2304;47.606;12.186;2022-09-09T11:17:43;17.30;84.70
4584;DHT22;2304;47.606;12.186;2022-09-09T11:22:52;17.60;86.20
4584;DHT22;2304;47.606;12.186;2022-09-09T11:28:28;17.30;87.90
4584;DHT22;2304;47.606;12.186;2022-09-09T11:33:54;17.30;88.60
4584;DHT22;2304;47.606;12.186;2022-09-09T11:39:05;17.40;88.30
4584;DHT22;2304;47.606;12.186;2022-09-09T11:44:12;17.50;87.40
4584;DHT22;2304;47.606;12.186;2022-09-09T11:49:27;17.50;86.80
4584;DHT22;2304;47.606;12.186;2022-09-09T11:54:32;17.50;87.00
4584;DHT22;2304;47.606;12.186;2022-09-09T11:59:35;17.60;87.80
4584;DHT22;2304;47.606;12.186;2022-09-09T12:04:39;17.50;87.50
4584;DHT22;2304;47.606;12.186;2022-09-09T12:09:49;17.50;87.70
4584;DHT22;2304;47.606;12.186;2022-09-09T12:15:00;17.50;88.60
4584;DHT22;2304;47.606;12.186;2022-09-09T12:20:11;17.60;88.20
4584;DHT22;2304;47.606;12.186;2022-09-09T12:25:23;18.00;87.50
4584;DHT22;2304;47.606;12.186;2022-09-09T12:30:32;17.70;86.40
4584;DHT22;2304;47.606;12.186;2022-09-09T12:35:35;18.00;85.90
4584;DHT22;2304;47.606;12.186;2022-09-09T12:40:40;18.00;85.50
4584;DHT22;2304;47.606;12.186;2022-09-09T12:45:42;17.90;85.50
4584;DHT22;2304;47.606;12.186;2022-09-09T12:50:47;18.00;84.80
4584;DHT22;2304;47.606;12.186;2022-09-09T12:55:54;17.90;85.20
4584;DHT22;2304;47.606;12.186;2022-09-09T13:00:57;17.80;84.50
4584;DHT22;2304;47.606;12.186;2022-09-09T13:06:11;17.70;83.10
4584;DHT22;2304;47.606;12.186;2022-09-09T13:11:18;17.60;84.60
4584;DHT22;2304;47.606;12.186;2022-09-09T13:16:23;17.50;85.10
4584;DHT22;2304;47.606;12.186;2022-09-09T13:21:37;17.60;86.20
4584;DHT22;2304;47.606;12.186;2022-09-09T13:26:41;17.70;86.80
4584;DHT22;2304;47.606;12.186;2022-09-09T13:31:42;17.70;86.90
4584;DHT22;2304;47.606;12.186;2022-09-09T13:36:47;17.60;85.90
4584;DHT22;2304;47.606;12.186;2022-09-09T13:41:51;17.60;85.40
4584;DHT22;2304;47.606;12.186;2022-09-09T13:47:04;17.80;84.40
4584;DHT22;2304;47.606;12.186;2022-09-09T13:52:10;17.60;84.20
4584;DHT22;2304;47.606;12.186;2022-09-09T13:57:16;17.60;83.00
4584;DHT22;2304;47.606;12.186;2022-09-09T14:02:19;17.90;84.20
4584;DHT22;2304;47.606;12.186;2022-09-09T14:07:21;18.00;84.00
4584;DHT22;2304;47.606;12.186;2022-09-09T14:12:25;17.90;83.50
4584;DHT22;2304;47.606;12.186;2022-09-09T14:17:27;17.90;82.90
4584;DHT22;2304;47.606;12.186;2022-09-09T14:22:30;17.80;80.50
4584;DHT22;2304;47.606;12.186;2022-09-09T14:27:33;17.90;80.80
4584;DHT22;2304;47.606;12.186;2022-09-09T14:32:35;18.00;82.50
4584;DHT22;2304;47.606;12.186;2022-09-09T14:37:37;18.30;83.70
4584;DHT22;2304;47.606;12.186;2022-09-09T14:42:41;18.00;83.60
4584;DHT22;2304;47.606;12.186;2022-09-09T14:47:43;18.00;84.90
4584;DHT22;2304;47.606;12.186;2022-09-09T14:52:45;18.10;84.70
4584;DHT22;2304;47.606;12.186;2022-09-09T14:57:48;18.00;85.10
4584;DHT22;2304;47.606;12.186;2022-09-09T15:02:52;17.90;84.90
4584;DHT22;2304;47.606;12.186;2022-09-09T15:07:53;17.90;85.50
4584;DHT22;2304;47.606;12.186;2022-09-09T15:12:57;17.90;85.00
4584;DHT22;2304;47.606;12.186;2022-09-09T15:17:58;17.90;84.80
4584;DHT22;2304;47.606;12.186;2022-09-09T15:23:00;17.80;83.30
4584;DHT22;2304;47.606;12.186;2022-09-09T15:28:03;18.10;83.70
4584;DHT22;2304;47.606;12.186;2022-09-09T15:33:07;18.20;83.90
4584;DHT22;2304;47.606;12.186;2022-09-09T15:38:10;18.30;84.80
4584;DHT22;2304;47.606;12.186;2022-09-09T15:43:14;18.20;84.50
4584;DHT22;2304;47.606;12.186;2022-09-09T15:48:16;18.40;84.00
4584;DHT22;2304;47.606;12.186;2022-09-09T15:53:19;18.10;83.50
4584;DHT22;2304;47.606;12.186;2022-09-09T15:58:23;18.10;81.10
4584;DHT22;2304;47.606;12.186;2022-09-09T16:03:25;18.20;81.10
4584;DHT22;2304;47.606;12.186;2022-09-09T16:08:31;17.80;80.60
4584;DHT22;2304;47.606;12.186;2022-09-09T16:13:35;17.70;81.50
4584;DHT22;2304;47.606;12.186;2022-09-09T16:18:38;17.70;81.60
4584;DHT22;2304;47.606;12.186;2022-09-09T16:23:40;17.70;80.60
4584;DHT22;2304;47.606;12.186;2022-09-09T16:28:44;17.90;81.40
4584;DHT22;2304;47.606;12.186;2022-09-09T16:33:47;17.90;81.70
4584;DHT22;2304;47.606;12.186;2022-09-09T16:38:52;17.80;83.20
4584;DHT22;2304;47.606;12.186;2022-09-09T16:43:59;17.70;83.70
4584;DHT22;2304;47.606;12.186;2022-09-09T16:49:04;17.60;83.00
4584;DHT22;2304;47.606;12.186;2022-09-09T16:54:07;17.50;82.40
4584;DHT22;2304;47.606;12.186;2022-09-09T16:59:12;17.40;83.00
4584;DHT22;2304;47.606;12.186;2022-09-09T17:04:16;17.30;83.70
4584;DHT22;2304;47.606;12.186;2022-09-09T17:09:21;17.40;84.30
4584;DHT22;2304;47.606;12.186;2022-09-09T17:14:25;17.40;85.00
4584;DHT22;2304;47.606;12.186;2022-09-09T17:19:27;17.40;85.50
4584;DHT22;2304;47.606;12.186;2022-09-09T17:24:28;17.20;85.90
4584;DHT22;2304;47.606;12.186;2022-09-09T17:29:31;17.40;86.30
4584;DHT22;2304;47.606;12.186;2022-09-09T17:34:36;17.10;87.70
4584;DHT22;2304;47.606;12.186;2022-09-09T17:39:38;17.00;87.50
4584;DHT22;2304;47.606;12.186;2022-09-09T17:44:41;17.20;87.00
4584;DHT22;2304;47.606;12.186;2022-09-09T17:49:43;17.00;86.20
4584;DHT22;2304;47.606;12.186;2022-09-09T17:54:45;17.00;85.80
4584;DHT22;2304;47.606;12.186;2022-09-09T17:59:48;16.90;85.30
4584;DHT22;2304;47.606;12.186;2022-09-09T18:04:50;17.10;84.60
4584;DHT22;2304;47.606;12.186;2022-09-09T18:09:52;16.90;86.40
4584;DHT22;2304;47.606;12.186;2022-09-09T18:14:55;16.90;87.80
4584;DHT22;2304;47.606;12.186;2022-09-09T18:19:57;16.80;85.80
4584;DHT22;2304;47.606;12.186;2022-09-09T18:24:58;16.70;84.60
4584;DHT22;2304;47.606;12.186;2022-09-09T18:30:02;16.70;85.60
4584;DHT22;2304;47.606;12.186;2022-09-09T18:35:05;16.70;86.40
4584;DHT22;2304;47.606;12.186;2022-09-09T18:40:07;16.70;87.20
4584;DHT22;2304;47.606;12.186;2022-09-09T18:45:10;16.70;87.10
4584;DHT22;2304;47.606;12.186;2022-09-09T18:50:12;16.70;87.10
4584;DHT22;2304;47.606;12.186;2022-09-09T18:55:14;16.70;85.50
4584;DHT22;2304;47.606;12.186;2022-09-09T19:00:17;16.60;85.50
4584;DHT22;2304;47.606;12.186;2022-09-09T19:05:19;16.60;85.90
4584;DHT22;2304;47.606;12.186;2022-09-09T19:10:21;16.50;87.00
4584;DHT22;2304;47.606;12.186;2022-09-09T19:15:24;16.40;86.30
4584;DHT22;2304;47.606;12.186;2022-09-09T19:20:25;16.50;86.40
4584;DHT22;2304;47.606;12.186;2022-09-09T19:25:27;16.30;85.00
4584;DHT22;2304;47.606;12.186;2022-09-09T19:30:34;16.30;86.30
4584;DHT22;2304;47.606;12.186;2022-09-09T19:35:36;16.30;86.90
4584;DHT22;2304;47.606;12.186;2022-09-09T19:40:38;16.30;88.40
4584;DHT22;2304;47.606;12.186;2022-09-09T19:45:42;16.60;88.50
4584;DHT22;2304;47.606;12.186;2022-09-09T19:50:44;16.40;87.70
4584;DHT22;2304;47.606;12.186;2022-09-09T19:55:48;16.30;87.80
4584;DHT22;2304;47.606;12.186;2022-09-09T20:00:52;16.30;87.50
4584;DHT22;2304;47.606;12.186;2022-09-09T20:05:54;16.30;86.40
4584;DHT22;2304;47.606;12.186;2022-09-09T20:10:57;16.30;83.80
4584;DHT22;2304;47.606;12.186;2022-09-09T20:16:01;16.40;83.60
4584;DHT22;2304;47.606;12.186;2022-09-09T20:21:05;16.40;84.30
4584;DHT22;2304;47.606;12.186;2022-09-09T20:26:10;16.30;83.30
4584;DHT22;2304;47.606;12.186;2022-09-09T20:31:16;16.20;81.60
4584;DHT22;2304;47.606;12.186;2022-09-09T20:36:21;16.20;84.10
4584;DHT22;2304;47.606;12.186;2022-09-09T20:41:25;16.20;86.30
4584;DHT22;2304;47.606;12.186;2022-09-09T20:46:30;16.20;88.30
4584;DHT22;2304;47.606;12.186;2022-09-09T20:51:34;16.10;88.80
4584;DHT22;2304;47.606;12.186;2022-09-09T20:56:39;16.30;89.30
4584;DHT22;2304;47.606;12.186;2022-09-09T21:01:43;16.10;88.30
4584;DHT22;2304;47.606;12.186;2022-09-09T21:06:47;16.10;87.10
4584;DHT22;2304;47.606;12.186;2022-09-09T21:11:50;16.10;86.40
4584;DHT22;2304;47.606;12.186;2022-09-09T21:16:54;16.10;85.80
4584;DHT22;2304;47.606;12.186;2022-09-09T21:21:56;16.10;84.80
4584;DHT22;2304;47.606;12.186;2022-09-09T21:26:58;16.00;84.70
4584;DHT22;2304;47.606;12.186;2022-09-09T21:32:02;16.00;85.00
4584;DHT22;2304;47.606;12.186;2022-09-09T21:37:04;16.00;85.80
4584;DHT22;2304;47.606;12.186;2022-09-09T21:42:06;16.00;85.50
4584;DHT22;2304;47.606;12.186;2022-09-09T21:47:09;16.00;86.20
4584;DHT22;2304;47.606;12.186;2022-09-09T21:52:12;16.00;86.60
4584;DHT22;2304;47.606;12.186;2022-09-09T21:57:15;16.00;86.50
4584;DHT22;2304;47.606;12.186;2022-09-09T22:02:18;16.10;86.20
4584;DHT22;2304;47.606;12.186;2022-09-09T22:07:21;16.00;86.10
4584;DHT22;2304;47.606;12.186;2022-09-09T22:12:23;15.90;86.80
4584;DHT22;2304;47.606;12.186;2022-09-09T22:17:26;15.90;87.80
4584;DHT22;2304;47.606;12.186;2022-09-09T22:22:28;15.80;89.50
4584;DHT22;2304;47.606;12.186;2022-09-09T22:27:30;15.90;89.00
4584;DHT22;2304;47.606;12.186;2022-09-09T22:32:33;15.90;89.00
4584;DHT22;2304;47.606;12.186;2022-09-09T22:37:34;16.10;88.30
4584;DHT22;2304;47.606;12.186;2022-09-09T22:42:36;15.90;89.20
4584;DHT22;2304;47.606;12.186;2022-09-09T22:47:40;15.90;89.70
4584;DHT22;2304;47.606;12.186;2022-09-09T22:52:42;15.90;89.00
4584;DHT22;2304;47.606;12.186;2022-09-09T22:57:44;16.00;88.10
4584;DHT22;2304;47.606;12.186;2022-09-09T23:02:47;15.90;88.70
4584;DHT22;2304;47.606;12.186;2022-09-09T23:07:50;16.00;88.60
4584;DHT22;2304;47.606;12.186;2022-09-09T23:12:52;16.00;87.70
4584;DHT22;2304;47.606;12.186;2022-09-09T23:17:56;15.90;87.00
4584;DHT22;2304;47.606;12.186;2022-09-09T23:22:58;15.80;87.50
4584;DHT22;2304;47.606;12.186;2022-09-09T23:28:01;15.70;86.20
4584;DHT22;2304;47.606;12.186;2022-09-09T23:33:04;15.60;85.40
4584;DHT22;2304;47.606;12.186;2022-09-09T23:38:06;15.50;84.50
4584;DHT22;2304;47.606;12.186;2022-09-09T23:43:08;15.50;85.00
4584;DHT22;2304;47.606;12.186;2022-09-09T23:48:12;15.50;82.20
4584;DHT22;2304;47.606;12.186;2022-09-09T23:53:15;15.30;84.00
4584;DHT22;2304;47.606;12.186;2022-09-09T23:58:17;15.30;86.00
